»·PEaware :: N6507W KIZA-KSBP

N6507W :: KIZA-KSBP

FLIGHT INFORMATION

Flight Status: Arrived
Operator: Privately registered:
United States
More flights under this callsign
Pilot: Jukka N. (18040)
Aircraft: CESSNA 172 SKYHAWK
(C172)
More flights by this aircraft type
Origin: KIZA Santa Ynez
United States
Destination: KSBP San Luis Co Regl
United States
More flights between these airports :: More routes between these airports
Route:
File this flight plan on PilotEdge
Remarks:
Altitude:
(Current/Filed)
6,500ft
Speed:
(Current/Filed)
120kts
Departed: 10-Mar-19 09:57 AM
Arrived: 10-Mar-19 10:29 AM
Distance/Time
Traveled:
47nm/0:31
Distance/Time
To Go:
Arrived

Flight Plot

Page will automatically refresh every two minutes.

Flight plan parsing failed; only flown route is shown


Map Options




Map Legend


Flown Route
Filed Route
Departure Airport
Arrival Airport
Navaid (VOR, NDB)
Fix

Horizontal Profiles

Position Reports

Time Latitude Longitude Heading Altitude Ground
Speed
10-Mar-19 09:47 34.607194 -120.072818 188 673ft 0kts
10-Mar-19 09:48 34.607194 -120.072818 188 673ft 0kts
10-Mar-19 09:49 34.607194 -120.072818 188 673ft 0kts
10-Mar-19 09:50 34.607194 -120.072818 188 673ft 0kts
10-Mar-19 09:51 34.607194 -120.072818 188 673ft 0kts
10-Mar-19 09:52 34.607194 -120.072818 188 673ft 0kts
10-Mar-19 09:53 34.607194 -120.072818 188 673ft 0kts
10-Mar-19 09:54 34.606953 -120.072787 140 673ft 4kts
10-Mar-19 09:55 34.606701 -120.071154 95 673ft 0kts
10-Mar-19 09:56 34.607372 -120.081367 277 905ft 72kts
10-Mar-19 09:57 34.609917 -120.104709 277 1894ft 70kts
10-Mar-19 09:58 34.612986 -120.126483 276 2867ft 58kts
10-Mar-19 09:59 34.619286 -120.145943 277 3451ft 76kts
10-Mar-19 10:00 34.642762 -120.161021 349 3439ft 107kts
10-Mar-19 10:01 34.672804 -120.165267 350 4043ft 109kts
10-Mar-19 10:02 34.702910 -120.169614 345 4642ft 108kts
10-Mar-19 10:03 34.729304 -120.185767 324 5243ft 106kts
10-Mar-19 10:04 34.753321 -120.206524 322 5842ft 105kts
10-Mar-19 10:05 34.776843 -120.227511 322 6438ft 104kts
10-Mar-19 10:06 34.802266 -120.250217 323 6536ft 118kts
10-Mar-19 10:07 34.828818 -120.273998 323 6535ft 118kts
10-Mar-19 10:08 34.855248 -120.297709 323 6535ft 118kts
10-Mar-19 10:09 34.883480 -120.317641 335 6535ft 116kts
10-Mar-19 10:10 34.912866 -120.333200 336 6479ft 118kts
10-Mar-19 10:11 34.943494 -120.349175 337 5462ft 113kts
10-Mar-19 10:12 34.971492 -120.363806 337 4551ft 99kts
10-Mar-19 10:13 34.990438 -120.373766 336 4543ft 66kts
10-Mar-19 10:14 35.008969 -120.383476 337 4539ft 77kts
10-Mar-19 10:15 35.031615 -120.395302 337 4216ft 99kts
10-Mar-19 10:16 35.056898 -120.408527 337 3927ft 95kts
10-Mar-19 10:17 35.080852 -120.421099 337 3716ft 92kts
10-Mar-19 10:18 35.104231 -120.433372 337 3512ft 92kts
10-Mar-19 10:19 35.124820 -120.450723 309 3312ft 92kts
10-Mar-19 10:20 35.140469 -120.475793 308 3114ft 92kts
10-Mar-19 10:21 35.155895 -120.500929 308 2907ft 87kts
10-Mar-19 10:22 35.168094 -120.522596 297 2621ft 74kts
10-Mar-19 10:23 35.175829 -120.543639 310 2386ft 62kts
10-Mar-19 10:24 35.188183 -120.560554 313 2225ft 79kts
10-Mar-19 10:25 35.205063 -120.584314 307 1687ft 101kts
10-Mar-19 10:26 35.221041 -120.612509 305 759ft 93kts
10-Mar-19 10:27 35.233242 -120.633833 301 239ft 61kts
10-Mar-19 10:28 35.237485 -120.639924 5 215ft 0kts
10-Mar-19 10:29 35.238528 -120.639609 334 215ft 0kts
10-Mar-19 10:30 35.238528 -120.639609 334 215ft 0kts
10-Mar-19 10:31 35.238528 -120.639609 334 215ft 0kts
10-Mar-19 10:32 35.238528 -120.639609 334 215ft 0kts
10-Mar-19 10:33 35.238528 -120.639609 334 215ft 0kts
10-Mar-19 10:34 35.238528 -120.639609 334 215ft 0kts
10-Mar-19 10:35 35.238528 -120.639609 334 215ft 0kts
10-Mar-19 10:36 35.238528 -120.639609 334 215ft 0kts
10-Mar-19 10:37 35.238528 -120.639609 334 215ft 0kts
10-Mar-19 10:38 35.238528 -120.639609 334 215ft 0kts
10-Mar-19 10:39 35.238528 -120.639609 334 215ft 0kts
10-Mar-19 10:40 35.238528 -120.639609 334 215ft 0kts
10-Mar-19 10:41 35.238528 -120.639609 334 215ft 0kts
10-Mar-19 10:42 35.238528 -120.639609 334 215ft 0kts

Navigation Log

Ident Type
Flight plan parsing failed, navigation log unavailable